aviador You're here:

LEVC Decoded Metar

VALENCIA in SPAIN
Report Time2016-09-28 08:00:00
UTC Time2016-09-28 08:27:59
Flight Rules vfr VFR
Wind320° at 09 kt
W.Decomp.*RWY 30: 8.4 kt HW 3.2 kt RCW
W.Rank320° ranks 5
Current wind is above 320° avg. (6.6)
Visibility9999 m
Phenomena:N/A
Clouds:Few TCU 018 Hf
Expected CloudBase > 1,200 ft AGL from Temp-Dew spread
CeilingNone
Temp19°C (ISA +4)
Dew Point16°C (83% RH)
AAT17.8°C
QNH1028 hPa
Density Alt456 ft
Elevation203 ft
Report Wrong Elevation
Raw Report
LEVC 280800Z 32009KT 290V350 9999 FEW018TCU 19/16 Q1028 NOSIG=

Extra information for LEVC:More info

Metar Taf Metar & Taf Last 4 Metars F.Rules Stats Wind Profile Meteogram Temp Stats Airport Information Weather charts Add Link Nearby VenuesMetar ALERT Operation Metar Decoded Social comments

Webcam Valencia